Time;durP1;ratioP1;P1;durP2;ratioP2;P2;SDS_P1;SDS_P2;PMS_P1;PMS_P2;Temp;Humidity;BMP_temperature;BMP_pressure;BME280_temperature;BME280_humidity;BME280_pressure;Samples;Min_cycle;Max_cycle;Signal;HPM_P1;HPM_P2
2024/03/22 00:01:14;;;;;;;;;;;11.80;93.20;;;;;;5053311;28;20375;-67
2024/03/22 00:03:39;;;;;;;;;;;11.80;93.60;;;;;;5052748;28;19912;-67
2024/03/22 00:06:05;;;;;;;;;;;11.80;94.20;;;;;;5052474;28;20407;-67
2024/03/22 00:08:30;;;;;;;;;;;11.80;93.50;;;;;;5053038;28;19912;-66
2024/03/22 00:10:56;;;;;;;;;;;11.70;94.60;;;;;;5053285;28;20046;-67
2024/03/22 00:13:21;;;;;;;;;;;11.70;95.70;;;;;;5053037;28;19905;-67
2024/03/22 00:15:47;;;;;;;;;;;11.80;96.20;;;;;;5052810;28;19916;-67
2024/03/22 00:18:12;;;;;;;;;;;11.80;94.90;;;;;;5052872;28;19913;-67
2024/03/22 00:20:38;;;;;;;;;;;11.90;94.50;;;;;;5053170;28;19995;-67
2024/03/22 00:23:03;;;;;;;;;;;11.90;93.90;;;;;;5053052;28;19912;-67
2024/03/22 00:25:29;;;;;;;;;;;11.80;93.60;;;;;;5052477;28;19905;-67
2024/03/22 00:27:55;;;;;;;;;;;11.80;93.80;;;;;;5052653;28;20440;-67
2024/03/22 00:30:20;;;;;;;;;;;11.80;92.40;;;;;;5052531;28;20256;-67
2024/03/22 00:32:47;;;;;;;;;;;11.80;91.60;;;;;;5052855;28;19905;-67
2024/03/22 00:35:12;;;;;;;;;;;11.80;92.50;;;;;;5053152;28;20271;-67
2024/03/22 00:37:38;;;;;;;;;;;11.80;92.90;;;;;;5052659;28;19905;-68
2024/03/22 00:40:04;;;;;;;;;;;11.80;92.40;;;;;;5052898;28;19904;-68
2024/03/22 00:42:30;;;;;;;;;;;11.80;93.50;;;;;;5052277;28;19909;-67
2024/03/22 00:44:56;;;;;;;;;;;11.80;94.00;;;;;;5052807;28;20261;-67
2024/03/22 00:47:22;;;;;;;;;;;11.80;93.80;;;;;;5052415;28;19911;-67
2024/03/22 00:49:47;;;;;;;;;;;11.80;93.80;;;;;;5052706;28;20280;-68
2024/03/22 00:52:13;;;;;;;;;;;11.80;94.20;;;;;;5052591;28;20055;-67
2024/03/22 00:54:40;;;;;;;;;;;11.80;94.60;;;;;;5052510;28;19915;-67
2024/03/22 00:57:05;;;;;;;;;;;11.80;95.40;;;;;;5052263;28;19947;-68
2024/03/22 00:59:31;;;;;;;;;;;11.80;95.50;;;;;;5052461;28;20010;-67
2024/03/22 01:01:56;;;;;;;;;;;11.80;94.90;;;;;;5052528;28;19911;-68
2024/03/22 01:04:22;;;;;;;;;;;11.80;95.50;;;;;;5052486;28;19905;-67
2024/03/22 01:06:48;;;;;;;;;;;11.80;95.70;;;;;;5051953;28;20008;-67
2024/03/22 01:09:14;;;;;;;;;;;11.70;95.10;;;;;;5052403;28;19911;-67
2024/03/22 01:11:40;;;;;;;;;;;11.60;95.20;;;;;;5052428;28;19913;-67
2024/03/22 01:14:05;;;;;;;;;;;11.60;95.20;;;;;;5052203;28;19963;-67
2024/03/22 01:16:31;;;;;;;;;;;11.70;99.90;;;;;;5051849;28;20368;-67
2024/03/22 01:18:56;;;;;;;;;;;11.60;96.10;;;;;;5051794;28;19959;-67
2024/03/22 01:21:24;;;;;;;;;;;11.50;97.80;;;;;;5052327;28;20348;-67
2024/03/22 01:23:53;;;;;;;;;;;11.50;98.80;;;;;;5052093;28;20467;-66
2024/03/22 01:26:18;;;;;;;;;;;11.50;99.90;;;;;;5051922;28;19909;-67
2024/03/22 01:28:44;;;;;;;;;;;11.50;99.90;;;;;;5051966;28;19917;-66
2024/03/22 01:31:09;;;;;;;;;;;11.60;99.90;;;;;;5052132;28;19905;-66
2024/03/22 01:33:35;;;;;;;;;;;11.60;99.50;;;;;;5052134;28;20394;-67
2024/03/22 01:36:00;;;;;;;;;;;11.70;98.90;;;;;;5051886;28;19991;-67
2024/03/22 01:38:26;;;;;;;;;;;11.70;98.30;;;;;;5051456;28;19912;-67
2024/03/22 01:40:51;;;;;;;;;;;11.80;98.50;;;;;;5052037;28;20004;-68
2024/03/22 01:43:17;;;;;;;;;;;11.70;97.10;;;;;;5052451;28;19905;-67
2024/03/22 01:45:42;;;;;;;;;;;11.80;96.80;;;;;;5051731;28;19905;-68
2024/03/22 01:48:08;;;;;;;;;;;11.80;97.00;;;;;;5051997;28;19905;-67
2024/03/22 01:50:33;;;;;;;;;;;11.90;96.00;;;;;;5052009;28;19904;-66
2024/03/22 01:52:59;;;;;;;;;;;11.90;96.40;;;;;;5052668;28;19939;-66
2024/03/22 01:55:25;;;;;;;;;;;11.90;96.70;;;;;;5055515;28;19909;-66
2024/03/22 01:57:51;;;;;;;;;;;11.90;95.80;;;;;;5055725;28;19909;-66
2024/03/22 02:00:17;;;;;;;;;;;11.80;95.90;;;;;;5055280;28;20031;-67
2024/03/22 02:02:42;;;;;;;;;;;11.80;95.10;;;;;;5055737;28;20385;-66
2024/03/22 02:05:11;;;;;;;;;;;11.70;96.70;;;;;;5055759;28;19904;-67
2024/03/22 02:07:36;;;;;;;;;;;11.70;97.60;;;;;;5055200;28;19905;-67
2024/03/22 02:10:02;;;;;;;;;;;11.70;97.50;;;;;;5055572;28;20291;-66
2024/03/22 02:12:28;;;;;;;;;;;11.70;98.70;;;;;;5055478;28;19987;-67
2024/03/22 02:14:53;;;;;;;;;;;11.80;97.20;;;;;;5055473;28;19909;-66
2024/03/22 02:17:19;;;;;;;;;;;11.70;97.70;;;;;;5055119;28;20439;-66
2024/03/22 02:19:44;;;;;;;;;;;11.70;98.50;;;;;;5055506;28;19904;-67
2024/03/22 02:22:09;;;;;;;;;;;11.70;98.50;;;;;;5055562;28;19914;-67
2024/03/22 02:24:35;;;;;;;;;;;11.70;98.80;;;;;;5055342;28;19958;-67
2024/03/22 02:27:00;;;;;;;;;;;11.70;99.70;;;;;;5054815;28;19909;-66
2024/03/22 02:29:26;;;;;;;;;;;11.90;99.70;;;;;;5055318;28;20394;-68
2024/03/22 02:31:51;;;;;;;;;;;11.90;99.10;;;;;;5055286;28;19904;-68
2024/03/22 02:34:17;;;;;;;;;;;11.90;99.70;;;;;;5055224;28;19909;-68
2024/03/22 02:36:42;;;;;;;;;;;11.90;99.40;;;;;;5055114;28;20355;-67
2024/03/22 02:39:08;;;;;;;;;;;12.00;98.00;;;;;;5055112;28;19909;-67
2024/03/22 02:41:33;;;;;;;;;;;12.00;98.00;;;;;;5054376;28;19911;-68
2024/03/22 02:43:59;;;;;;;;;;;12.00;97.50;;;;;;5054346;28;19904;-68
2024/03/22 02:46:24;;;;;;;;;;;11.70;99.90;;;;;;5053908;28;19905;-67
2024/03/22 02:48:49;;;;;;;;;;;11.90;98.90;;;;;;5054794;28;19987;-67
2024/03/22 02:51:15;;;;;;;;;;;12.00;99.90;;;;;;5054959;28;19974;-67
2024/03/22 02:53:40;;;;;;;;;;;12.00;99.50;;;;;;5054758;28;19952;-67
2024/03/22 02:56:06;;;;;;;;;;;12.00;99.20;;;;;;5054517;28;19904;-67
2024/03/22 02:58:31;;;;;;;;;;;12.10;98.80;;;;;;5054599;28;19927;-68
2024/03/22 03:00:57;;;;;;;;;;;12.10;98.00;;;;;;5054757;28;20001;-68
2024/03/22 03:03:22;;;;;;;;;;;12.10;98.90;;;;;;5054620;28;20364;-67
2024/03/22 03:05:48;;;;;;;;;;;12.20;97.10;;;;;;5053667;28;19940;-67
2024/03/22 03:08:13;;;;;;;;;;;12.20;97.30;;;;;;5054094;28;20503;-67
2024/03/22 03:10:39;;;;;;;;;;;12.20;97.80;;;;;;5054612;28;19912;-67
2024/03/22 03:13:04;;;;;;;;;;;12.40;96.60;;;;;;5054322;28;19952;-67
2024/03/22 03:15:30;;;;;;;;;;;12.40;94.90;;;;;;5054049;28;20292;-67
2024/03/22 03:17:55;;;;;;;;;;;12.40;92.80;;;;;;5054210;28;19955;-66
2024/03/22 03:20:20;;;;;;;;;;;12.50;92.60;;;;;;5054436;28;19909;-67
2024/03/22 03:22:46;;;;;;;;;;;12.60;91.40;;;;;;5054282;28;20304;-67
2024/03/22 03:25:11;;;;;;;;;;;12.60;90.40;;;;;;5054176;28;19905;-67
2024/03/22 03:27:37;;;;;;;;;;;12.70;85.80;;;;;;5054004;28;19908;-67
2024/03/22 03:30:02;;;;;;;;;;;12.70;83.40;;;;;;5054239;28;20361;-67
2024/03/22 03:32:28;;;;;;;;;;;12.80;80.00;;;;;;5053953;28;19909;-67
2024/03/22 03:34:53;;;;;;;;;;;12.80;77.70;;;;;;5054051;28;20430;-67
2024/03/22 03:37:19;;;;;;;;;;;12.80;77.90;;;;;;5053756;28;19944;-66
2024/03/22 03:39:44;;;;;;;;;;;12.90;77.60;;;;;;5053658;28;19911;-67
2024/03/22 03:42:10;;;;;;;;;;;12.80;73.90;;;;;;5053864;28;19928;-66
2024/03/22 03:44:36;;;;;;;;;;;12.80;75.40;;;;;;5053871;28;19951;-67
2024/03/22 03:47:01;;;;;;;;;;;12.80;76.10;;;;;;5053527;28;19912;-67
2024/03/22 03:49:27;;;;;;;;;;;12.80;74.10;;;;;;5052913;28;20354;-67
2024/03/22 03:51:52;;;;;;;;;;;12.80;73.70;;;;;;5053071;28;19908;-67
2024/03/22 03:54:18;;;;;;;;;;;12.80;73.30;;;;;;5052620;28;19958;-67
2024/03/22 03:56:43;;;;;;;;;;;12.80;74.50;;;;;;5053170;28;19905;-68
2024/03/22 03:59:09;;;;;;;;;;;12.80;72.30;;;;;;5053439;28;19971;-68
2024/03/22 04:01:35;;;;;;;;;;;12.80;69.50;;;;;;5053699;28;20034;-67
2024/03/22 04:04:00;;;;;;;;;;;12.80;67.50;;;;;;5052960;28;19950;-67
2024/03/22 04:06:25;;;;;;;;;;;12.90;88.90;;;;;;5052907;28;19991;-67
2024/03/22 04:08:51;;;;;;;;;;;12.80;66.30;;;;;;5053048;28;20355;-68
2024/03/22 04:11:16;;;;;;;;;;;12.80;66.30;;;;;;5052961;28;19915;-68
2024/03/22 04:13:42;;;;;;;;;;;12.70;66.60;;;;;;5053254;28;20322;-67
2024/03/22 04:16:07;;;;;;;;;;;12.80;68.80;;;;;;5053200;28;19911;-68
2024/03/22 04:18:33;;;;;;;;;;;12.80;68.50;;;;;;5093775;22;20008;-69
2024/03/22 04:21:00;;;;;;;;;;;12.80;66.50;;;;;;5053608;28;19911;-69
2024/03/22 04:23:25;;;;;;;;;;;12.80;69.10;;;;;;5054087;28;20007;-69
2024/03/22 04:25:52;;;;;;;;;;;12.80;67.30;;;;;;5053324;28;20050;-69
2024/03/22 04:28:17;;;;;;;;;;;12.80;67.10;;;;;;5053540;28;19905;-69
2024/03/22 04:30:43;;;;;;;;;;;12.80;68.10;;;;;;5052877;28;20337;-69
2024/03/22 04:33:08;;;;;;;;;;;12.70;65.80;;;;;;5053670;28;19905;-69
2024/03/22 04:35:34;;;;;;;;;;;12.80;66.00;;;;;;5053359;28;20008;-69
2024/03/22 04:37:59;;;;;;;;;;;12.90;61.90;;;;;;5053351;28;19905;-69
2024/03/22 04:40:25;;;;;;;;;;;12.90;58.10;;;;;;5053374;28;20615;-69
2024/03/22 04:42:50;;;;;;;;;;;12.90;58.20;;;;;;5053464;28;19904;-69
2024/03/22 04:45:16;;;;;;;;;;;12.90;58.40;;;;;;5052728;28;19912;-69
2024/03/22 04:47:43;;;;;;;;;;;13.00;58.20;;;;;;5052429;28;20338;-69
2024/03/22 04:50:09;;;;;;;;;;;12.90;58.90;;;;;;5052721;28;19904;-69
2024/03/22 04:52:34;;;;;;;;;;;12.80;58.80;;;;;;5052595;28;20003;-69
2024/03/22 04:55:02;;;;;;;;;;;12.90;59.00;;;;;;5052395;28;19912;-69
2024/03/22 04:57:27;;;;;;;;;;;13.00;57.80;;;;;;5051611;28;19965;-69
2024/03/22 04:59:53;;;;;;;;;;;12.90;57.40;;;;;;5052321;28;19904;-69
2024/03/22 05:02:18;;;;;;;;;;;12.90;58.60;;;;;;5052528;28;19912;-69
2024/03/22 05:04:44;;;;;;;;;;;12.90;58.60;;;;;;5052418;28;19951;-69
2024/03/22 05:07:09;;;;;;;;;;;12.90;61.70;;;;;;5052166;28;20374;-69
2024/03/22 05:09:35;;;;;;;;;;;12.90;62.30;;;;;;5052308;28;19916;-69
2024/03/22 05:12:00;;;;;;;;;;;13.00;65.40;;;;;;5052422;28;19911;-69
2024/03/22 05:14:26;;;;;;;;;;;13.00;68.00;;;;;;5052295;28;20283;-69
2024/03/22 05:16:52;;;;;;;;;;;13.00;64.80;;;;;;5052733;28;19908;-69
2024/03/22 05:19:17;;;;;;;;;;;12.90;66.10;;;;;;5055219;28;20352;-69
2024/03/22 05:21:43;;;;;;;;;;;12.90;68.50;;;;;;5056036;28;19912;-69
2024/03/22 05:24:08;;;;;;;;;;;12.80;69.70;;;;;;5054896;28;19905;-69
2024/03/22 05:26:36;;;;;;;;;;;13.00;96.30;;;;;;5053122;28;19957;-69
2024/03/22 05:29:02;;;;;;;;;;;12.80;76.00;;;;;;5051819;28;19975;-69
2024/03/22 05:31:28;;;;;;;;;;;12.80;76.50;;;;;;5052211;28;19905;-69
2024/03/22 05:33:54;;;;;;;;;;;12.80;76.50;;;;;;5051941;28;19905;-69
2024/03/22 05:36:19;;;;;;;;;;;12.80;76.70;;;;;;5051865;28;19970;-69
2024/03/22 05:38:44;;;;;;;;;;;12.80;76.30;;;;;;5051923;28;19908;-70
2024/03/22 05:41:10;;;;;;;;;;;12.80;77.30;;;;;;5051982;28;20364;-69
2024/03/22 05:43:35;;;;;;;;;;;12.80;78.00;;;;;;5052053;28;19909;-69
2024/03/22 05:46:01;;;;;;;;;;;12.80;78.50;;;;;;5051816;28;19904;-69
2024/03/22 05:48:26;;;;;;;;;;;12.80;78.80;;;;;;5051883;28;20341;-69
2024/03/22 05:50:52;;;;;;;;;;;12.80;79.80;;;;;;5052032;28;19916;-69
2024/03/22 05:53:18;;;;;;;;;;;12.90;78.20;;;;;;5051866;28;19904;-69
2024/03/22 05:55:43;;;;;;;;;;;12.90;78.70;;;;;;5051602;28;19944;-69
2024/03/22 05:58:09;;;;;;;;;;;12.90;79.30;;;;;;5051837;28;19905;-69
2024/03/22 06:00:34;;;;;;;;;;;12.90;77.80;;;;;;5051990;28;20300;-69
2024/03/22 06:03:00;;;;;;;;;;;12.90;77.20;;;;;;5051894;28;19952;-69
2024/03/22 06:05:25;;;;;;;;;;;13.00;76.20;;;;;;5051611;28;19909;-69
2024/03/22 06:07:51;;;;;;;;;;;13.00;77.70;;;;;;5051454;28;19995;-69
2024/03/22 06:10:16;;;;;;;;;;;13.00;76.10;;;;;;5051547;28;19908;-69
2024/03/22 06:12:44;;;;;;;;;;;12.90;76.40;;;;;;5051435;28;19951;-69
2024/03/22 06:15:09;;;;;;;;;;;13.00;77.10;;;;;;5051771;28;19952;-69
2024/03/22 06:17:35;;;;;;;;;;;13.00;77.10;;;;;;5051183;28;20346;-69
2024/03/22 06:20:01;;;;;;;;;;;13.10;74.70;;;;;;5051592;28;19905;-69
2024/03/22 06:22:26;;;;;;;;;;;13.10;75.60;;;;;;5051674;28;19916;-69
2024/03/22 06:24:52;;;;;;;;;;;13.10;75.30;;;;;;5051664;28;19908;-69
2024/03/22 06:27:18;;;;;;;;;;;13.10;74.90;;;;;;5051415;28;19911;-69
2024/03/22 06:29:44;;;;;;;;;;;13.20;76.50;;;;;;5051690;28;20382;-69
2024/03/22 06:32:09;;;;;;;;;;;13.20;75.90;;;;;;5051663;28;19979;-69
2024/03/22 06:34:34;;;;;;;;;;;13.80;74.80;;;;;;5051495;28;19916;-69
2024/03/22 06:37:00;;;;;;;;;;;13.30;69.60;;;;;;5050966;28;19908;-69
2024/03/22 06:39:25;;;;;;;;;;;13.40;68.70;;;;;;5053155;28;20307;-69
2024/03/22 06:41:51;;;;;;;;;;;13.40;69.50;;;;;;5055988;28;20404;-69
2024/03/22 06:44:17;;;;;;;;;;;13.40;69.20;;;;;;5056311;28;19971;-69
2024/03/22 06:46:42;;;;;;;;;;;13.50;96.60;;;;;;5055951;28;20417;-69
2024/03/22 06:49:08;;;;;;;;;;;13.40;68.20;;;;;;5056025;28;19966;-70
2024/03/22 06:51:33;;;;;;;;;;;13.50;68.80;;;;;;5054836;28;19912;-69
2024/03/22 06:53:59;;;;;;;;;;;13.60;63.40;;;;;;5054462;28;20257;-69
2024/03/22 06:56:24;;;;;;;;;;;13.60;62.50;;;;;;5054425;28;19995;-69
2024/03/22 06:58:49;;;;;;;;;;;13.70;59.20;;;;;;5054311;28;19911;-69
2024/03/22 07:01:15;;;;;;;;;;;13.70;59.90;;;;;;5054840;28;19944;-69
2024/03/22 07:03:45;;;;;;;;;;;13.70;58.40;;;;;;5054696;28;19991;-69
2024/03/22 07:06:10;;;;;;;;;;;13.70;60.80;;;;;;5054387;28;20280;-69
2024/03/22 07:08:36;;;;;;;;;;;13.80;57.60;;;;;;5054011;28;19909;-69
2024/03/22 07:11:05;;;;;;;;;;;13.80;50.90;;;;;;5054447;28;19904;-69
2024/03/22 07:13:30;;;;;;;;;;;13.80;47.60;;;;;;5054333;28;19905;-70
2024/03/22 07:15:56;;;;;;;;;;;13.90;43.50;;;;;;5054246;28;19913;-69
2024/03/22 07:18:21;;;;;;;;;;;13.90;40.90;;;;;;5053941;28;20356;-69
2024/03/22 07:20:47;;;;;;;;;;;13.90;38.40;;;;;;5054180;28;19915;-69
2024/03/22 07:23:13;;;;;;;;;;;13.90;39.30;;;;;;5054327;28;19904;-69
2024/03/22 07:25:39;;;;;;;;;;;13.90;37.90;;;;;;5054104;28;19911;-69
2024/03/22 07:28:04;;;;;;;;;;;13.90;34.10;;;;;;5053927;28;19905;-69
2024/03/22 07:30:30;;;;;;;;;;;14.00;31.60;;;;;;5054220;28;19912;-69
2024/03/22 07:32:55;;;;;;;;;;;14.00;31.60;;;;;;5054146;28;19955;-69
2024/03/22 07:35:21;;;;;;;;;;;14.00;30.50;;;;;;5053760;28;19962;-69
2024/03/22 07:37:46;;;;;;;;;;;14.20;29.80;;;;;;5054016;28;19912;-69
2024/03/22 07:40:12;;;;;;;;;;;14.20;28.90;;;;;;5053877;28;19948;-69
2024/03/22 07:42:37;;;;;;;;;;;14.30;26.10;;;;;;5053557;28;19912;-69
2024/03/22 07:45:04;;;;;;;;;;;14.40;24.40;;;;;;5054030;28;20004;-69
2024/03/22 07:47:29;;;;;;;;;;;14.30;22.50;;;;;;5053694;28;19911;-69
2024/03/22 07:49:55;;;;;;;;;;;14.40;23.10;;;;;;5053465;28;19904;-69
2024/03/22 07:52:20;;;;;;;;;;;14.40;22.60;;;;;;5052625;28;20022;-69
2024/03/22 07:54:46;;;;;;;;;;;14.50;22.40;;;;;;5053123;28;20276;-69
2024/03/22 07:57:12;;;;;;;;;;;14.50;21.50;;;;;;5052876;28;19904;-69
2024/03/22 07:59:37;;;;;;;;;;;14.50;20.40;;;;;;5053583;28;19912;-69
2024/03/22 08:02:03;;;;;;;;;;;14.60;19.90;;;;;;5053476;28;19904;-69
2024/03/22 08:04:29;;;;;;;;;;;14.60;20.80;;;;;;5053307;28;19905;-70
2024/03/22 08:06:54;;;;;;;;;;;14.70;18.30;;;;;;5053158;28;19958;-69
2024/03/22 08:09:20;;;;;;;;;;;14.60;19.10;;;;;;5053558;28;19905;-69
2024/03/22 08:11:45;;;;;;;;;;;14.70;19.60;;;;;;5053407;28;19908;-69
2024/03/22 08:14:11;;;;;;;;;;;14.70;18.40;;;;;;5053264;28;19955;-69
2024/03/22 08:16:36;;;;;;;;;;;14.70;16.20;;;;;;5053104;28;19962;-69
2024/03/22 08:19:02;;;;;;;;;;;14.70;16.90;;;;;;5054329;28;19909;-69
2024/03/22 08:21:27;;;;;;;;;;;14.70;17.60;;;;;;5054578;28;20053;-69
2024/03/22 08:23:53;;;;;;;;;;;14.70;15.30;;;;;;5053234;28;19908;-69
2024/03/22 08:26:19;;;;;;;;;;;14.70;15.80;;;;;;5053090;28;19928;-69
2024/03/22 08:28:47;;;;;;;;;;;14.60;16.60;;;;;;5053078;28;19905;-69
2024/03/22 08:31:13;;;;;;;;;;;14.60;16.90;;;;;;5053257;28;20390;-69
2024/03/22 08:33:38;;;;;;;;;;;14.60;18.90;;;;;;5053081;28;19905;-69
2024/03/22 08:36:04;;;;;;;;;;;14.70;18.90;;;;;;5052786;28;19909;-70
2024/03/22 08:38:30;;;;;;;;;;;14.70;18.00;;;;;;5052909;28;19911;-69
2024/03/22 08:40:55;;;;;;;;;;;14.70;16.80;;;;;;5052869;28;20007;-69
2024/03/22 08:43:22;;;;;;;;;;;14.80;15.50;;;;;;5052836;28;19905;-69
2024/03/22 08:45:48;;;;;;;;;;;14.80;15.20;;;;;;5051996;28;20419;-69
2024/03/22 08:48:13;;;;;;;;;;;14.80;14.30;;;;;;5052740;28;19904;-69
2024/03/22 08:50:41;;;;;;;;;;;14.80;14.30;;;;;;5052651;28;20337;-69
2024/03/22 08:53:07;;;;;;;;;;;14.90;14.30;;;;;;5052689;28;20269;-69
2024/03/22 08:55:33;;;;;;;;;;;14.90;15.70;;;;;;5052370;28;19962;-69
2024/03/22 08:57:58;;;;;;;;;;;15.00;13.60;;;;;;5053439;28;19904;-69
2024/03/22 09:00:23;;;;;;;;;;;15.00;10.60;;;;;;5053153;28;19955;-69
2024/03/22 09:02:49;;;;;;;;;;;15.10;10.60;;;;;;5051776;28;19905;-69
2024/03/22 09:05:15;;;;;;;;;;;15.10;8.90;;;;;;5052461;28;19912;-69
2024/03/22 09:07:40;;;;;;;;;;;15.20;10.00;;;;;;5052116;28;19905;-69
2024/03/22 09:10:06;;;;;;;;;;;15.20;8.50;;;;;;5052687;28;20356;-69
2024/03/22 09:12:32;;;;;;;;;;;15.30;9.40;;;;;;5053500;28;19905;-69
2024/03/22 09:14:57;;;;;;;;;;;15.30;8.00;;;;;;5053002;28;20338;-69
2024/03/22 09:17:23;;;;;;;;;;;15.30;7.80;;;;;;5051838;28;19920;-69
2024/03/22 09:19:48;;;;;;;;;;;15.30;5.40;;;;;;5052222;28;19944;-68
2024/03/22 09:22:14;;;;;;;;;;;15.30;6.80;;;;;;5052098;28;20398;-69
2024/03/22 09:24:40;;;;;;;;;;;15.30;7.50;;;;;;5052241;28;19911;-69
2024/03/22 09:27:09;;;;;;;;;;;15.30;8.20;;;;;;5052008;28;19908;-69
2024/03/22 09:29:35;;;;;;;;;;;15.30;5.20;;;;;;5051887;28;19915;-69
2024/03/22 09:32:01;;;;;;;;;;;15.40;5.00;;;;;;5052409;28;19975;-69
2024/03/22 09:34:26;;;;;;;;;;;15.40;5.70;;;;;;5052876;28;19909;-71
2024/03/22 09:36:52;;;;;;;;;;;15.50;25.20;;;;;;5050434;28;19909;-69
2024/03/22 09:39:17;;;;;;;;;;;15.30;4.20;;;;;;5053846;28;19912;-69
2024/03/22 09:41:43;;;;;;;;;;;15.40;5.10;;;;;;5053908;28;19905;-70
2024/03/22 09:44:19;;;;;;;;;;;15.50;6.30;;;;;;5050289;28;19904;-70
2024/03/22 09:46:46;;;;;;;;;;;15.70;24.80;;;;;;5052666;28;19905;-70
2024/03/22 09:49:12;;;;;;;;;;;15.70;4.00;;;;;;5053371;28;19912;-70
2024/03/22 09:51:39;;;;;;;;;;;15.70;3.00;;;;;;5053533;28;19904;-70
2024/03/22 09:54:04;;;;;;;;;;;15.70;4.30;;;;;;5052377;28;20288;-70
2024/03/22 09:56:31;;;;;;;;;;;15.60;1.00;;;;;;5051661;28;19916;-69
2024/03/22 09:58:57;;;;;;;;;;;15.60;4.30;;;;;;5051238;28;19909;-69
2024/03/22 10:01:22;;;;;;;;;;;15.60;4.40;;;;;;5051715;28;20007;-69
2024/03/22 10:03:49;;;;;;;;;;;15.60;3.90;;;;;;5051912;28;19908;-69
2024/03/22 10:06:14;;;;;;;;;;;15.60;5.00;;;;;;5051478;28;20383;-69
2024/03/22 10:08:40;;;;;;;;;;;15.60;2.80;;;;;;5052588;28;19905;-69
2024/03/22 10:11:05;;;;;;;;;;;15.60;3.40;;;;;;5052575;28;19951;-69
2024/03/22 10:13:30;;;;;;;;;;;15.60;1.60;;;;;;5052048;28;19904;-69
2024/03/22 10:15:56;;;;;;;;;;;15.50;1.40;;;;;;5055485;28;20259;-69
2024/03/22 10:18:22;;;;;;;;;;;15.50;3.00;;;;;;5055708;28;19966;-70
2024/03/22 10:20:58;;;;;;;;;;;15.50;4.20;;;;;;5055714;28;19908;-69
2024/03/22 10:23:25;;;;;;;;;;;15.50;4.50;;;;;;5056069;28;19996;-69
2024/03/22 10:25:51;;;;;;;;;;;15.50;5.60;;;;;;5055455;28;19905;-69
2024/03/22 10:28:16;;;;;;;;;;;15.60;8.00;;;;;;5053557;28;20367;-70
2024/03/22 10:30:43;;;;;;;;;;;15.60;6.70;;;;;;5055251;28;19909;-70
2024/03/22 10:33:09;;;;;;;;;;;15.60;5.90;;;;;;5055035;28;20001;-69
2024/03/22 10:35:34;;;;;;;;;;;15.50;8.00;;;;;;5054311;28;19962;-70
2024/03/22 10:38:00;;;;;;;;;;;15.50;8.00;;;;;;5055107;28;19980;-69
2024/03/22 10:40:27;;;;;;;;;;;15.60;6.60;;;;;;5055006;28;19909;-69
2024/03/22 10:42:53;;;;;;;;;;;15.60;7.00;;;;;;5054446;28;19927;-69
2024/03/22 10:45:22;;;;;;;;;;;15.60;6.10;;;;;;5055867;28;19908;-69
2024/03/22 10:47:48;;;;;;;;;;;15.60;3.50;;;;;;5055646;28;20366;-69
2024/03/22 10:50:15;;;;;;;;;;;15.50;6.20;;;;;;5055489;28;19909;-69
2024/03/22 10:52:52;;;;;;;;;;;15.40;7.20;;;;;;5055869;28;19999;-69
2024/03/22 10:55:30;;;;;;;;;;;15.30;8.20;;;;;;5055312;28;19908;-69
2024/03/22 10:57:56;;;;;;;;;;;15.40;9.90;;;;;;5055102;28;19915;-69
2024/03/22 11:00:28;;;;;;;;;;;15.40;11.90;;;;;;5055303;28;19912;-69
2024/03/22 11:02:54;;;;;;;;;;;15.30;10.70;;;;;;5054485;28;19904;-69
2024/03/22 11:05:19;;;;;;;;;;;15.30;12.30;;;;;;5054110;28;19916;-69
2024/03/22 11:07:45;;;;;;;;;;;15.40;12.70;;;;;;5054396;28;19908;-69
2024/03/22 11:10:14;;;;;;;;;;;15.50;10.40;;;;;;5054439;28;20284;-69
2024/03/22 11:12:39;;;;;;;;;;;15.50;9.50;;;;;;5054048;28;19905;-69
2024/03/22 11:15:05;;;;;;;;;;;15.60;9.90;;;;;;5054220;28;20323;-70
2024/03/22 11:17:31;;;;;;;;;;;15.70;9.10;;;;;;5053909;28;20379;-70
2024/03/22 11:19:56;;;;;;;;;;;15.60;6.60;;;;;;5053928;28;19904;-70
2024/03/22 11:22:22;;;;;;;;;;;15.60;9.50;;;;;;5054173;28;19954;-69
2024/03/22 11:24:48;;;;;;;;;;;15.50;8.70;;;;;;5054476;28;19911;-69
2024/03/22 11:27:14;;;;;;;;;;;15.40;9.70;;;;;;5052690;28;20291;-69
2024/03/22 11:29:41;;;;;;;;;;;15.40;11.40;;;;;;5054024;28;20269;-69
2024/03/22 11:32:10;;;;;;;;;;;15.40;8.10;;;;;;5054105;28;20283;-69
2024/03/22 11:34:36;;;;;;;;;;;15.40;10.70;;;;;;5053645;28;20023;-69
2024/03/22 11:37:01;;;;;;;;;;;15.30;11.20;;;;;;5053576;28;19905;-69
2024/03/22 11:39:27;;;;;;;;;;;15.30;12.10;;;;;;5054118;28;19951;-69
2024/03/22 11:41:52;;;;;;;;;;;15.20;7.90;;;;;;5053472;28;19908;-69
2024/03/22 11:44:18;;;;;;;;;;;15.20;6.90;;;;;;5053834;28;20366;-69
2024/03/22 11:46:44;;;;;;;;;;;15.10;4.90;;;;;;5053208;28;19905;-69
2024/03/22 11:49:10;;;;;;;;;;;15.10;4.00;;;;;;5053003;28;19928;-69
2024/03/22 11:51:36;;;;;;;;;;;15.10;4.80;;;;;;5053592;28;19915;-69
2024/03/22 11:54:05;;;;;;;;;;;15.10;4.80;;;;;;5053493;28;19995;-69
2024/03/22 11:56:31;;;;;;;;;;;14.90;4.90;;;;;;5052885;28;20386;-69
2024/03/22 11:58:58;;;;;;;;;;;14.90;6.70;;;;;;5053514;28;19904;-69
2024/03/22 12:01:23;;;;;;;;;;;15.00;7.70;;;;;;5053564;28;19905;-69
2024/03/22 12:03:49;;;;;;;;;;;15.00;6.90;;;;;;5053119;28;19911;-69
2024/03/22 12:06:17;;;;;;;;;;;15.00;6.60;;;;;;5052938;28;19904;-69
2024/03/22 12:08:43;;;;;;;;;;;15.00;6.50;;;;;;5053356;28;19999;-69
2024/03/22 12:11:09;;;;;;;;;;;15.10;4.40;;;;;;5052705;28;19948;-69
2024/03/22 12:13:35;;;;;;;;;;;15.10;5.50;;;;;;5053271;28;20288;-69
2024/03/22 12:16:01;;;;;;;;;;;15.10;2.20;;;;;;5052831;28;19912;-69
2024/03/22 12:18:27;;;;;;;;;;;15.10;3.30;;;;;;5052513;28;19919;-69
2024/03/22 12:20:52;;;;;;;;;;;15.10;3.00;;;;;;5053076;28;19904;-69
2024/03/22 12:23:17;;;;;;;;;;;15.20;5.10;;;;;;5053188;28;19932;-69
2024/03/22 12:25:43;;;;;;;;;;;15.20;3.90;;;;;;5052342;28;19904;-69
2024/03/22 12:28:08;;;;;;;;;;;15.20;1.90;;;;;;5052914;28;19911;-69
2024/03/22 12:30:34;;;;;;;;;;;15.20;1.00;;;;;;5052983;28;19995;-69
2024/03/22 12:33:00;;;;;;;;;;;15.20;1.00;;;;;;5052549;28;19995;-69
2024/03/22 12:35:26;;;;;;;;;;;15.30;1.40;;;;;;5052404;28;20014;-69
2024/03/22 12:37:51;;;;;;;;;;;15.40;1.00;;;;;;5052085;28;20371;-69
2024/03/22 12:40:17;;;;;;;;;;;15.40;1.00;;;;;;5052410;28;20038;-69
2024/03/22 12:42:42;;;;;;;;;;;15.50;1.00;;;;;;5052630;28;19909;-69
2024/03/22 12:45:08;;;;;;;;;;;15.50;1.00;;;;;;5052655;28;19904;-69
2024/03/22 12:47:33;;;;;;;;;;;15.60;1.00;;;;;;5051999;28;19999;-69
2024/03/22 12:49:59;;;;;;;;;;;15.70;1.00;;;;;;5052621;28;20272;-69
2024/03/22 12:52:25;;;;;;;;;;;15.90;1.00;;;;;;5052608;28;20387;-69
2024/03/22 12:54:50;;;;;;;;;;;16.10;1.00;;;;;;5052121;28;19915;-69
2024/03/22 12:57:15;;;;;;;;;;;16.20;1.00;;;;;;5052050;28;19912;-69
2024/03/22 12:59:41;;;;;;;;;;;16.30;1.00;;;;;;5052951;28;19958;-69
2024/03/22 13:02:07;;;;;;;;;;;16.40;1.00;;;;;;5052707;28;19908;-70
2024/03/22 13:04:33;;;;;;;;;;;16.50;1.00;;;;;;5053115;28;20336;-69
2024/03/22 13:06:58;;;;;;;;;;;16.70;1.00;;;;;;5052442;28;19944;-69
2024/03/22 13:09:24;;;;;;;;;;;17.00;1.00;;;;;;5051503;28;19908;-69
2024/03/22 13:11:49;;;;;;;;;;;17.10;1.00;;;;;;5052938;28;19904;-69
2024/03/22 13:14:15;;;;;;;;;;;17.30;1.00;;;;;;5053057;28;20347;-70
2024/03/22 13:16:40;;;;;;;;;;;17.30;4.00;;;;;;5052112;28;20008;-70
2024/03/22 13:19:08;;;;;;;;;;;17.40;1.00;;;;;;5052114;28;19950;-70
2024/03/22 13:21:34;;;;;;;;;;;17.40;1.00;;;;;;5052427;28;19905;-69
2024/03/22 13:23:59;;;;;;;;;;;17.50;1.00;;;;;;5051588;28;19916;-69
2024/03/22 13:26:25;;;;;;;;;;;17.70;1.00;;;;;;5051877;28;19944;-69
2024/03/22 13:28:51;;;;;;;;;;;17.70;1.00;;;;;;5052068;28;20411;-70
2024/03/22 13:31:17;;;;;;;;;;;17.60;1.00;;;;;;5051785;28;19958;-70
2024/03/22 13:33:42;;;;;;;;;;;17.70;1.00;;;;;;5051705;28;20318;-70
2024/03/22 13:36:08;;;;;;;;;;;17.90;1.00;;;;;;5051686;28;19908;-70
2024/03/22 13:38:34;;;;;;;;;;;17.90;1.00;;;;;;5051962;28;20019;-70
2024/03/22 13:41:00;;;;;;;;;;;17.80;1.00;;;;;;5051696;28;19992;-70
2024/03/22 13:43:26;;;;;;;;;;;17.70;1.00;;;;;;5051972;28;19919;-70
2024/03/22 13:45:55;;;;;;;;;;;17.50;1.00;;;;;;5051594;28;19905;-70
2024/03/22 13:48:24;;;;;;;;;;;17.60;1.00;;;;;;5051409;28;19908;-70
2024/03/22 13:50:53;;;;;;;;;;;17.60;1.00;;;;;;5055966;28;19905;-70
2024/03/22 13:53:19;;;;;;;;;;;17.70;1.00;;;;;;5056030;28;19944;-69
2024/03/22 13:55:44;;;;;;;;;;;18.20;1.00;;;;;;5055266;28;19948;-69
2024/03/22 13:58:10;;;;;;;;;;;18.30;1.00;;;;;;5055832;28;20395;-69
2024/03/22 14:00:36;;;;;;;;;;;18.40;1.00;;;;;;5056544;28;19905;-69
2024/03/22 14:03:01;;;;;;;;;;;18.00;1.00;;;;;;5055620;28;20387;-69
2024/03/22 14:05:27;;;;;;;;;;;17.90;1.00;;;;;;5056165;28;19913;-69
2024/03/22 14:07:52;;;;;;;;;;;17.80;1.00;;;;;;5055821;28;20387;-69
2024/03/22 14:10:18;;;;;;;;;;;17.60;1.00;;;;;;5055312;28;19904;-69
2024/03/22 14:12:45;;;;;;;;;;;17.30;1.00;;;;;;5055614;28;19916;-70